createdAt,value
2022-12-12T00:01:47.157Z,96739.28
2022-12-12T00:04:13.851Z,96747.78
2022-12-12T00:06:40.582Z,96748.78
2022-12-12T00:09:07.259Z,96750.22
2022-12-12T00:11:34.036Z,96756.78
2022-12-12T00:14:00.675Z,96763.13
2022-12-12T00:16:27.712Z,96755.59
2022-12-12T00:18:54.722Z,96756.06
2022-12-12T00:21:24.880Z,96757.03
2022-12-12T00:23:52.172Z,96766.53
2022-12-12T00:26:22.494Z,96761.41
2022-12-12T00:28:49.573Z,96766.28
2022-12-12T00:31:16.764Z,96769.44
2022-12-12T00:33:45.056Z,96765.31
2022-12-12T00:36:11.745Z,96767.75
2022-12-12T00:38:38.325Z,96764.56
2022-12-12T00:41:06.236Z,96761.91
2022-12-12T00:43:32.871Z,96758.25
2022-12-12T00:46:00.279Z,96762.88
2022-12-12T00:48:27.505Z,96765.28
2022-12-12T00:50:54.749Z,96771.63
2022-12-12T00:53:23.130Z,96774.31
2022-12-12T00:55:57.854Z,96777.47
2022-12-12T00:58:25.731Z,96776.00
2022-12-12T01:00:53.234Z,96772.09
2022-12-12T01:03:20.852Z,96784.97
2022-12-12T01:05:47.696Z,96784.47
2022-12-12T01:08:14.414Z,96777.94
2022-12-12T01:10:41.671Z,96783.03
2022-12-12T01:13:08.317Z,96778.66
2022-12-12T01:15:34.908Z,96776.94
2022-12-12T01:18:01.497Z,96782.28
2022-12-12T01:20:28.657Z,96778.66
2022-12-12T01:22:55.317Z,96776.69
2022-12-12T01:25:22.388Z,96784.44
2022-12-12T01:27:49.061Z,96790.25
2022-12-12T01:30:18.650Z,96788.78
2022-12-12T01:32:45.521Z,96784.41
2022-12-12T01:35:12.560Z,96790.63
2022-12-12T01:37:40.796Z,96792.56
2022-12-12T01:40:18.843Z,96788.44
2022-12-12T01:42:45.605Z,96788.19
2022-12-12T01:45:49.531Z,96784.81
2022-12-12T01:48:16.197Z,96783.09
2022-12-12T01:50:44.178Z,96784.50
2022-12-12T01:53:13.199Z,96782.59
2022-12-12T01:55:39.859Z,96779.91
2022-12-12T01:58:06.478Z,96775.81
2022-12-12T02:00:33.528Z,96779.53
2022-12-12T02:03:00.685Z,96782.94
2022-12-12T02:05:33.448Z,96778.13
2022-12-12T02:08:02.070Z,96778.66
2022-12-12T02:10:29.168Z,96781.81
2022-12-12T02:13:19.060Z,96781.09
2022-12-12T02:15:59.900Z,96782.31
2022-12-12T02:18:50.194Z,96791.03
2022-12-12T02:21:48.240Z,96788.63
2022-12-12T02:25:01.620Z,96787.16
2022-12-12T02:28:01.569Z,96781.59
2022-12-12T02:31:07.521Z,96787.41
2022-12-12T02:33:58.276Z,96781.56
2022-12-12T02:36:57.492Z,96794.22
2022-12-12T02:39:36.799Z,96794.97
2022-12-12T02:42:09.188Z,96789.63
2022-12-12T02:44:37.570Z,96787.44
2022-12-12T02:47:36.242Z,96790.09
2022-12-12T02:50:09.537Z,96793.03
2022-12-12T02:52:36.869Z,96785.97
2022-12-12T02:55:04.867Z,96785.25
2022-12-12T02:57:31.517Z,96786.22
2022-12-12T03:00:02.568Z,96785.97
2022-12-12T03:03:25.801Z,96793.72
2022-12-12T03:43:20.213Z,96804.22
2022-12-12T03:45:57.687Z,96798.13
2022-12-12T03:48:29.420Z,96800.56
2022-12-12T03:51:01.005Z,96793.75
2022-12-12T03:53:41.824Z,96788.41
2022-12-12T03:56:27.089Z,96794.00
2022-12-12T03:59:01.422Z,96788.16
2022-12-12T04:01:36.751Z,96797.88
2022-12-12T04:04:26.894Z,96793.50
2022-12-12T04:07:00.950Z,96789.63
2022-12-12T04:09:46.956Z,96796.66
2022-12-12T04:13:00.914Z,96794.25
2022-12-12T04:15:53.578Z,96793.75
2022-12-12T04:18:52.952Z,96787.44
2022-12-12T04:21:54.575Z,96789.38
2022-12-12T04:24:44.816Z,96798.59
2022-12-12T04:27:34.585Z,96805.66
2022-12-12T04:30:10.720Z,96796.41
2022-12-12T04:32:45.244Z,96798.38
2022-12-12T04:35:20.313Z,96801.28
2022-12-12T04:38:08.286Z,96798.38
2022-12-12T04:40:39.296Z,96804.69
2022-12-12T04:43:27.648Z,96800.34
2022-12-12T04:46:01.972Z,96805.69
2022-12-12T04:48:38.603Z,96797.16
2022-12-12T04:51:10.157Z,96800.31
2022-12-12T04:53:42.368Z,96806.66
2022-12-12T04:56:13.447Z,96809.31
2022-12-12T04:58:40.756Z,96802.50
2022-12-12T05:01:16.045Z,96805.41
2022-12-12T05:03:58.398Z,96807.13
2022-12-12T05:06:37.759Z,96809.31
2022-12-12T05:09:04.516Z,96808.59
2022-12-12T05:11:31.112Z,96810.53
2022-12-12T05:13:57.680Z,96810.78
2022-12-12T05:16:32.517Z,96815.88
2022-12-12T05:19:00.347Z,96809.53
2022-12-12T05:21:27.067Z,96822.19
2022-12-12T05:23:53.867Z,96812.22
2022-12-12T05:26:25.984Z,96813.69
2022-12-12T05:28:52.972Z,96823.91
2022-12-12T05:31:19.737Z,96814.41
2022-12-12T05:33:46.764Z,96812.97
2022-12-12T05:36:14.374Z,96824.13
2022-12-12T05:38:41.880Z,96818.81
2022-12-12T05:41:09.082Z,96822.19
2022-12-12T05:43:36.066Z,96823.19
2022-12-12T05:46:02.821Z,96817.59
2022-12-12T05:48:29.472Z,96829.47
2022-12-12T05:50:56.156Z,96832.41
2022-12-12T05:53:23.204Z,96833.88
2022-12-12T05:55:54.030Z,96833.63
2022-12-12T05:58:20.603Z,96837.75
2022-12-12T06:00:49.020Z,96848.72
2022-12-12T06:03:16.544Z,96851.38
2022-12-12T06:05:43.253Z,96847.25
2022-12-12T06:08:09.989Z,96843.84
2022-12-12T06:10:36.840Z,96852.09
2022-12-12T06:13:03.861Z,96861.59
2022-12-12T06:15:30.516Z,96864.75
2022-12-12T06:17:58.535Z,96865.97
2022-12-12T06:20:25.380Z,96859.41
2022-12-12T06:22:53.703Z,96864.00
2022-12-12T06:25:21.020Z,96865.22
2022-12-12T06:27:47.798Z,96864.00
2022-12-12T06:30:14.924Z,96870.31
2022-12-12T06:32:42.006Z,96870.78
2022-12-12T06:35:09.481Z,96868.81
2022-12-12T06:37:36.219Z,96879.97
2022-12-12T06:40:03.353Z,96878.25
2022-12-12T06:42:29.943Z,96877.53
2022-12-12T06:44:56.688Z,96876.59
2022-12-12T06:47:23.282Z,96886.28
2022-12-12T06:49:49.859Z,96885.50
2022-12-12T06:52:16.525Z,96896.25
2022-12-12T06:54:43.061Z,96893.38
2022-12-12T06:57:09.659Z,96896.78
2022-12-12T06:59:36.235Z,96901.66
2022-12-12T07:02:02.914Z,96911.84
2022-12-12T07:04:29.639Z,96903.06
2022-12-12T07:06:56.255Z,96908.91
2022-12-12T07:09:22.850Z,96910.34
2022-12-12T07:11:49.417Z,96903.31
2022-12-12T07:14:16.073Z,96915.72
2022-12-12T07:16:42.661Z,96915.72
2022-12-12T07:19:09.841Z,96919.59
2022-12-12T07:21:36.497Z,96918.84
2022-12-12T07:24:03.151Z,96916.63
2022-12-12T07:26:29.741Z,96919.34
2022-12-12T07:28:56.395Z,96917.63
2022-12-12T07:31:26.109Z,96919.78
2022-12-12T07:33:54.330Z,96927.78
2022-12-12T07:36:21.362Z,96929.25
2022-12-12T07:38:48.197Z,96928.81
2022-12-12T07:41:17.027Z,96935.84
2022-12-12T07:43:46.146Z,96921.28
2022-12-12T07:46:23.094Z,96941.47
2022-12-12T07:48:50.397Z,96936.84
2022-12-12T07:51:17.678Z,96942.44
2022-12-12T07:53:44.376Z,96941.03
2022-12-12T07:56:13.814Z,96948.03
2022-12-12T07:58:40.436Z,96955.59
2022-12-12T08:01:19.035Z,96955.56
2022-12-12T08:03:46.878Z,96951.44
2022-12-12T08:06:14.359Z,96958.75
2022-12-12T08:08:40.944Z,96958.19
2022-12-12T08:11:09.158Z,96961.34
2022-12-12T08:13:37.622Z,96976.63
2022-12-12T08:16:05.332Z,96972.78
2022-12-12T08:18:32.273Z,96979.81
2022-12-12T08:20:58.864Z,96985.41
2022-12-12T08:23:25.411Z,96983.97
2022-12-12T08:25:52.092Z,96988.88
2022-12-12T08:28:18.698Z,96989.31
2022-12-12T08:30:49.261Z,96996.69
2022-12-12T08:33:15.837Z,97003.44
2022-12-12T08:35:42.379Z,97007.34
2022-12-12T08:38:08.987Z,97011.97
2022-12-12T08:40:36.901Z,97020.50
2022-12-12T08:43:03.488Z,97020.66
2022-12-12T08:45:30.105Z,97018.59
2022-12-12T08:47:56.705Z,97022.47
2022-12-12T08:50:23.291Z,97021.03
2022-12-12T08:52:49.839Z,97029.09
2022-12-12T08:55:16.505Z,97034.25
2022-12-12T08:57:43.279Z,97027.47
2022-12-12T09:00:10.839Z,97035.47
2022-12-12T09:02:37.653Z,97030.38
2022-12-12T09:05:04.687Z,97028.69
2022-12-12T09:07:31.267Z,97032.84
2022-12-12T09:09:57.865Z,97030.66
2022-12-12T09:12:24.523Z,97028.97
2022-12-12T09:14:51.095Z,97030.38
2022-12-12T09:17:17.747Z,97038.41
2022-12-12T09:19:45.768Z,97036.00
2022-12-12T09:22:12.669Z,97035.28
2022-12-12T09:24:39.248Z,97033.59
2022-12-12T09:27:05.875Z,97034.81
2022-12-12T09:29:32.521Z,97040.66
2022-12-12T09:31:59.167Z,97037.28
2022-12-12T09:34:25.801Z,97030.66
2022-12-12T09:36:52.392Z,97034.13
2022-12-12T09:39:19.658Z,97033.88
2022-12-12T09:41:46.257Z,97032.41
2022-12-12T09:44:18.614Z,97025.38
2022-12-12T09:46:55.556Z,97025.88
2022-12-12T09:49:50.896Z,97033.63
2022-12-12T09:52:29.288Z,97039.00
2022-12-12T09:54:59.513Z,97029.00
2022-12-12T09:57:33.801Z,97038.28
2022-12-12T10:00:27.279Z,97031.69
2022-12-12T10:03:23.133Z,97034.34
2022-12-12T10:06:36.613Z,97038.50
2022-12-12T10:09:47.826Z,97045.06
2022-12-12T10:12:18.680Z,97044.34
2022-12-12T10:14:52.921Z,97044.59
2022-12-12T10:17:52.974Z,97047.00
2022-12-12T10:20:29.650Z,97046.81
2022-12-12T10:23:13.953Z,97044.13
2022-12-12T10:26:07.075Z,97048.50
2022-12-12T10:28:35.212Z,97041.22
2022-12-12T10:31:33.593Z,97047.53
2022-12-12T10:34:44.839Z,97051.66
2022-12-12T10:37:50.441Z,97052.16
2022-12-12T10:40:57.332Z,97051.94
2022-12-12T10:43:30.209Z,97058.25
2022-12-12T10:46:28.423Z,97059.47
2022-12-12T10:48:55.307Z,97067.03
2022-12-12T10:51:25.920Z,97068.25
2022-12-12T10:53:52.563Z,97068.97
2022-12-12T10:56:29.275Z,97072.63
2022-12-12T10:59:01.357Z,97063.13
2022-12-12T11:04:22.851Z,97062.38
2022-12-12T11:06:52.159Z,97058.97
2022-12-12T11:09:25.015Z,97068.47
2022-12-12T11:12:12.116Z,97059.97
2022-12-12T11:14:41.415Z,97063.59
2022-12-12T11:17:29.363Z,97050.94
2022-12-12T11:19:59.250Z,97061.66
2022-12-12T11:22:27.440Z,97060.47
2022-12-12T11:24:54.477Z,97067.97
2022-12-12T11:27:25.523Z,97070.19
2022-12-12T11:29:55.664Z,97077.72
2022-12-12T11:32:46.345Z,97074.06
2022-12-12T11:35:47.035Z,97072.13
2022-12-12T11:38:20.845Z,97070.66
2022-12-12T11:41:05.815Z,97066.53
2022-12-12T11:43:37.117Z,97067.50
2022-12-12T11:46:28.625Z,97074.31
2022-12-12T11:48:59.279Z,97075.78
2022-12-12T11:51:43.316Z,97070.91
2022-12-12T11:54:33.461Z,97066.53
2022-12-12T11:57:40.767Z,97074.09
2022-12-12T12:00:22.305Z,97068.00
2022-12-12T12:03:13.463Z,97062.66
2022-12-12T12:06:17.615Z,97061.66
2022-12-12T12:09:16.359Z,97058.00
2022-12-12T12:12:03.521Z,97051.69
2022-12-12T12:14:54.828Z,97045.56
2022-12-12T12:17:55.332Z,97048.22
2022-12-12T12:20:45.883Z,97043.31
2022-12-12T12:23:50.097Z,97043.03
2022-12-12T12:26:53.076Z,97054.66
2022-12-12T12:29:50.598Z,97057.47
2022-12-12T12:32:44.333Z,97053.81
2022-12-12T12:35:30.513Z,97047.56
2022-12-12T12:38:38.411Z,97048.56
2022-12-12T12:41:55.075Z,97045.19
2022-12-12T12:44:49.517Z,97044.44
2022-12-12T12:47:47.793Z,97045.66
2022-12-12T12:50:31.472Z,97045.41
2022-12-12T12:53:05.359Z,97046.66
2022-12-12T12:55:55.206Z,97048.88
2022-12-12T12:58:26.527Z,97049.56
2022-12-12T13:01:02.662Z,97054.50
2022-12-12T13:03:46.616Z,97047.47
2022-12-12T13:06:20.941Z,97062.34
2022-12-12T13:09:13.686Z,97067.28
2022-12-12T13:11:45.565Z,97072.88
2022-12-12T13:14:48.111Z,97071.19
2022-12-12T13:17:21.538Z,97073.84
2022-12-12T13:19:53.412Z,97084.53
2022-12-12T13:23:03.345Z,97077.72
2022-12-12T13:25:49.798Z,97088.34
2022-12-12T13:28:21.591Z,97086.41
2022-12-12T13:31:01.310Z,97082.03
2022-12-12T13:33:40.773Z,97078.94
2022-12-12T13:36:29.051Z,97083.56
2022-12-12T13:39:01.311Z,97084.00
2022-12-12T13:41:47.943Z,97084.50
2022-12-12T13:44:36.802Z,97081.84
2022-12-12T13:47:10.714Z,97084.00
2022-12-12T13:50:01.442Z,97085.97
2022-12-12T13:52:38.479Z,97091.78
2022-12-12T13:55:25.341Z,97094.97
2022-12-12T13:58:31.431Z,97098.16
2022-12-12T14:01:27.710Z,97105.22
2022-12-12T14:03:54.656Z,97095.50
2022-12-12T14:06:21.332Z,97096.22
2022-12-12T14:08:50.587Z,97113.25
2022-12-12T14:11:27.776Z,97113.25
2022-12-12T14:14:07.792Z,97113.75
2022-12-12T14:16:35.569Z,97111.03
2022-12-12T14:19:08.743Z,97117.06
2022-12-12T14:21:47.531Z,97110.47
2022-12-12T14:24:47.845Z,97118.97
2022-12-12T14:27:15.130Z,97120.66
2022-12-12T14:29:43.822Z,97123.53
2022-12-12T14:32:41.651Z,97125.94
2022-12-12T14:35:24.956Z,97121.47
2022-12-12T14:38:09.552Z,97126.88
2022-12-12T14:40:48.427Z,97125.69
2022-12-12T14:43:22.954Z,97127.94
2022-12-12T14:45:58.082Z,97121.34
2022-12-12T14:48:35.347Z,97120.38
2022-12-12T14:51:12.197Z,97119.44
2022-12-12T14:53:48.967Z,97117.72
2022-12-12T14:56:27.387Z,97121.81
2022-12-12T14:58:53.848Z,97123.75
2022-12-12T15:01:33.608Z,97122.47
2022-12-12T15:04:04.656Z,97117.13
2022-12-12T15:06:39.692Z,97120.25
2022-12-12T15:09:29.646Z,97115.78
2022-12-12T15:12:16.347Z,97119.69
2022-12-12T15:15:22.011Z,97124.06
2022-12-12T15:17:51.280Z,97128.13
2022-12-12T15:20:21.564Z,97136.41
2022-12-12T15:23:00.519Z,97142.25
2022-12-12T15:25:37.107Z,97145.66
2022-12-12T15:28:04.145Z,97136.44
2022-12-12T15:30:43.261Z,97142.31
2022-12-12T15:33:22.211Z,97152.22
2022-12-12T15:35:58.049Z,97144.69
2022-12-12T15:38:29.176Z,97151.94
2022-12-12T15:40:58.989Z,97154.59
2022-12-12T15:43:30.783Z,97150.44
2022-12-12T15:46:00.145Z,97152.59
2022-12-12T15:48:27.184Z,97150.84
2022-12-12T15:51:04.029Z,97151.06
2022-12-12T15:53:35.349Z,97145.69
2022-12-12T15:56:14.218Z,97149.63
2022-12-12T15:59:07.680Z,97148.88
2022-12-12T16:01:34.677Z,97153.53
2022-12-12T16:04:08.327Z,97157.84
2022-12-12T16:06:43.899Z,97156.41
2022-12-12T16:09:25.668Z,97149.91
2022-12-12T16:11:53.646Z,97157.97
2022-12-12T16:14:28.091Z,97159.38
2022-12-12T16:17:06.492Z,97157.69
2022-12-12T16:20:04.899Z,97155.19
2022-12-12T16:22:51.727Z,97158.34
2022-12-12T16:25:18.209Z,97155.16
2022-12-12T16:27:46.129Z,97166.16
2022-12-12T16:30:14.930Z,97161.97
2022-12-12T16:32:42.389Z,97163.59
2022-12-12T16:35:17.872Z,97162.09
2022-12-12T16:37:45.533Z,97156.22
2022-12-12T16:40:17.215Z,97162.75
2022-12-12T16:42:49.655Z,97163.44
2022-12-12T16:45:16.118Z,97161.66
2022-12-12T16:47:42.714Z,97158.56
2022-12-12T16:50:12.843Z,97162.28
2022-12-12T16:52:39.621Z,97161.88
2022-12-12T16:55:19.385Z,97162.41
2022-12-12T16:57:46.267Z,97169.19
2022-12-12T17:00:14.111Z,97166.25
2022-12-12T17:02:41.000Z,97163.84
2022-12-12T17:05:17.292Z,97171.34
2022-12-12T17:07:43.852Z,97172.56
2022-12-12T17:10:11.239Z,97183.91
2022-12-12T17:12:38.701Z,97177.38
2022-12-12T17:15:06.057Z,97172.44
2022-12-12T17:17:32.718Z,97192.81
2022-12-12T17:19:59.406Z,97185.44
2022-12-12T17:22:26.026Z,97196.66
2022-12-12T17:24:52.580Z,97189.06
2022-12-12T17:27:19.192Z,97193.47
2022-12-12T17:29:45.793Z,97185.22
2022-12-12T17:32:12.384Z,97189.63
2022-12-12T17:34:39.110Z,97188.41
2022-12-12T17:37:05.681Z,97197.22
2022-12-12T17:39:32.264Z,97199.88
2022-12-12T17:41:58.817Z,97201.88
2022-12-12T17:44:25.778Z,97198.31
2022-12-12T17:46:52.873Z,97204.59
2022-12-12T17:49:19.417Z,97206.28
2022-12-12T17:51:45.992Z,97208.97
2022-12-12T17:54:12.579Z,97209.34
2022-12-12T17:56:39.439Z,97210.09
2022-12-12T17:59:09.161Z,97214.84
2022-12-12T18:01:36.136Z,97215.78
2022-12-12T18:04:03.378Z,97216.72
2022-12-12T18:06:33.188Z,97220.00
2022-12-12T18:09:00.864Z,97214.03
2022-12-12T18:11:31.450Z,97215.31
2022-12-12T18:14:00.639Z,97217.56
2022-12-12T18:16:29.444Z,97222.44
2022-12-12T18:18:56.650Z,97214.38
2022-12-12T18:24:12.633Z,97222.78
2022-12-12T18:26:39.279Z,97216.50
2022-12-12T18:29:07.499Z,97221.13
2022-12-12T18:31:35.359Z,97216.78
2022-12-12T18:34:02.079Z,97212.03
2022-12-12T18:36:30.596Z,97223.22
2022-12-12T18:38:59.680Z,97221.09
2022-12-12T18:41:28.174Z,97220.47
2022-12-12T18:43:55.740Z,97219.47
2022-12-12T18:46:24.670Z,97216.75
2022-12-12T18:48:51.351Z,97213.91
2022-12-12T18:51:20.846Z,97218.94
2022-12-12T18:53:47.634Z,97221.06
2022-12-12T18:56:18.518Z,97227.78
2022-12-12T18:58:45.269Z,97230.91
2022-12-12T19:01:15.347Z,97228.91
2022-12-12T19:03:44.004Z,97226.88
2022-12-12T19:06:13.709Z,97230.19
2022-12-12T19:08:40.955Z,97215.75
2022-12-12T19:11:08.835Z,97224.94
2022-12-12T19:13:35.472Z,97224.84
2022-12-12T19:16:10.888Z,97225.75
2022-12-12T19:18:38.346Z,97226.97
2022-12-12T19:21:07.428Z,97229.53
2022-12-12T19:23:35.010Z,97227.53
2022-12-12T19:26:13.799Z,97239.22
2022-12-12T19:28:40.462Z,97242.16
2022-12-12T19:31:09.030Z,97239.03
2022-12-12T19:33:35.787Z,97239.28
2022-12-12T19:36:09.332Z,97238.84
2022-12-12T19:38:35.911Z,97247.56
2022-12-12T19:41:07.086Z,97244.56
2022-12-12T19:43:34.040Z,97247.09
2022-12-12T19:46:05.155Z,97252.88
2022-12-12T19:48:32.290Z,97244.72
2022-12-12T19:51:07.201Z,97254.63
2022-12-12T19:53:36.536Z,97247.94
2022-12-12T19:56:03.676Z,97244.56
2022-12-12T19:58:33.854Z,97256.84
2022-12-12T20:01:13.947Z,97252.81
2022-12-12T20:03:40.816Z,97253.28
2022-12-12T20:06:10.273Z,97258.84
2022-12-12T20:08:38.164Z,97259.50
2022-12-12T20:11:07.110Z,97264.09
2022-12-12T20:13:33.838Z,97268.78
2022-12-12T20:16:15.732Z,97268.22
2022-12-12T20:18:42.654Z,97265.28
2022-12-12T20:21:20.452Z,97260.06
2022-12-12T20:23:57.040Z,97259.38
2022-12-12T20:26:29.607Z,97255.50
2022-12-12T20:28:59.505Z,97249.25
2022-12-12T20:31:31.275Z,97252.44
2022-12-12T20:33:59.110Z,97253.09
2022-12-12T20:36:28.442Z,97253.19
2022-12-12T20:38:56.900Z,97246.69
2022-12-12T20:41:26.520Z,97242.19
2022-12-12T20:43:55.132Z,97249.91
2022-12-12T20:46:33.873Z,97245.66
2022-12-12T20:49:02.392Z,97244.81
2022-12-12T20:56:48.151Z,97239.06
2022-12-12T20:59:14.791Z,97230.72
2022-12-12T21:01:41.477Z,97240.53
2022-12-12T21:04:09.469Z,97244.38
2022-12-12T21:06:38.940Z,97249.19
2022-12-12T21:09:10.208Z,97252.50
2022-12-12T21:11:37.850Z,97257.41
2022-12-12T21:14:05.460Z,97256.22
2022-12-12T21:16:35.115Z,97248.63
2022-12-12T21:19:12.393Z,97248.81
2022-12-12T21:21:41.904Z,97241.66
2022-12-12T21:24:09.866Z,97243.47
2022-12-12T21:26:36.431Z,97247.63
2022-12-12T21:29:04.827Z,97236.91
2022-12-12T21:31:36.366Z,97236.25
2022-12-12T21:34:04.116Z,97237.75
2022-12-12T21:36:31.457Z,97241.03
2022-12-12T21:38:59.830Z,97238.97
2022-12-12T21:41:26.931Z,97240.91
2022-12-12T21:43:55.553Z,97244.09
2022-12-12T21:46:25.386Z,97242.75
2022-12-12T21:49:11.325Z,97244.16
2022-12-12T21:51:39.059Z,97247.28
2022-12-12T21:54:07.538Z,97247.00
2022-12-12T21:56:34.353Z,97245.22
2022-12-12T21:59:00.889Z,97241.44
2022-12-12T22:01:27.799Z,97234.66
2022-12-12T22:03:55.584Z,97243.31
2022-12-12T22:06:27.017Z,97242.56
2022-12-12T22:08:57.583Z,97239.16
2022-12-12T22:11:40.447Z,97231.63
2022-12-12T22:14:12.714Z,97240.63
2022-12-12T22:16:39.311Z,97241.25
2022-12-12T22:19:09.818Z,97234.38
2022-12-12T22:21:36.709Z,97232.84
2022-12-12T22:24:03.766Z,97237.19
2022-12-12T22:26:33.255Z,97233.75
2022-12-12T22:29:02.491Z,97241.13
2022-12-12T22:31:33.009Z,97232.94
2022-12-12T22:34:02.163Z,97230.06
2022-12-12T22:36:31.396Z,97233.63
2022-12-12T22:38:58.831Z,97230.38
2022-12-12T22:41:26.813Z,97234.50
2022-12-12T22:43:58.164Z,97226.94
2022-12-12T22:46:26.246Z,97231.97
2022-12-12T22:48:54.780Z,97231.19
2022-12-12T22:51:25.124Z,97234.69
2022-12-12T22:53:52.451Z,97234.53
2022-12-12T22:56:18.968Z,97230.53
2022-12-12T22:58:45.710Z,97231.91
2022-12-12T23:01:22.316Z,97231.00
2022-12-12T23:03:49.284Z,97226.22
2022-12-12T23:06:18.751Z,97229.63
2022-12-12T23:08:53.428Z,97229.34
2022-12-12T23:11:21.756Z,97225.06
2022-12-12T23:13:48.732Z,97232.88
2022-12-12T23:16:18.834Z,97227.78
2022-12-12T23:18:46.788Z,97220.88
2022-12-12T23:21:17.268Z,97227.38
2022-12-12T23:23:44.644Z,97219.81
2022-12-12T23:26:17.995Z,97223.09
2022-12-12T23:28:45.671Z,97224.28
2022-12-12T23:31:18.755Z,97223.53
2022-12-12T23:33:46.363Z,97225.63
2022-12-12T23:36:14.587Z,97218.50
2022-12-12T23:38:41.891Z,97219.84
2022-12-12T23:41:12.255Z,97219.69
2022-12-12T23:43:39.266Z,97214.69
2022-12-12T23:46:09.060Z,97207.81
2022-12-12T23:48:35.650Z,97208.81
2022-12-12T23:51:02.465Z,97208.81
2022-12-12T23:53:31.752Z,97204.56
2022-12-12T23:56:04.056Z,97215.00
2022-12-12T23:58:30.585Z,97207.94
